sensor_id;sensor_type;location;lat;lon;timestamp;P1;durP1;ratioP1;P2;durP2;ratioP2
25980;SDS011;13772;52.996;9.124;2022-12-18T11:33:17;11.27;;;7.00;;
25980;SDS011;13772;52.996;9.124;2022-12-18T11:35:50;9.80;;;6.32;;
25980;SDS011;13772;52.996;9.124;2022-12-18T11:38:30;9.32;;;6.40;;
25980;SDS011;13772;52.996;9.124;2022-12-18T11:40:58;10.25;;;6.90;;
25980;SDS011;13772;52.996;9.124;2022-12-18T11:43:27;9.18;;;6.50;;
25980;SDS011;13772;52.996;9.124;2022-12-18T11:45:53;10.55;;;6.10;;
25980;SDS011;13772;52.996;9.124;2022-12-18T11:48:23;9.70;;;6.03;;
25980;SDS011;13772;52.996;9.124;2022-12-18T11:53:16;9.10;;;5.85;;
25980;SDS011;13772;52.996;9.124;2022-12-18T12:16:18;9.93;;;6.25;;
25980;SDS011;13772;52.996;9.124;2022-12-18T12:23:47;10.27;;;6.95;;
25980;SDS011;13772;52.996;9.124;2022-12-18T12:26:16;14.90;;;6.93;;
25980;SDS011;13772;52.996;9.124;2022-12-18T12:29:04;10.63;;;6.80;;
25980;SDS011;13772;52.996;9.124;2022-12-18T12:31:37;11.80;;;6.83;;
25980;SDS011;13772;52.996;9.124;2022-12-18T12:39:11;14.60;;;7.67;;
25980;SDS011;13772;52.996;9.124;2022-12-18T12:41:38;13.00;;;6.70;;
25980;SDS011;13772;52.996;9.124;2022-12-18T12:44:30;14.13;;;6.77;;
25980;SDS011;13772;52.996;9.124;2022-12-18T12:46:59;13.57;;;7.47;;
25980;SDS011;13772;52.996;9.124;2022-12-18T12:49:29;13.30;;;7.27;;
25980;SDS011;13772;52.996;9.124;2022-12-18T12:52:00;14.07;;;7.77;;
25980;SDS011;13772;52.996;9.124;2022-12-18T12:54:28;12.60;;;7.60;;
25980;SDS011;13772;52.996;9.124;2022-12-18T12:57:06;14.00;;;8.00;;
25980;SDS011;13772;52.996;9.124;2022-12-18T12:59:40;13.13;;;7.33;;
25980;SDS011;13772;52.996;9.124;2022-12-18T13:07:12;14.90;;;8.00;;
25980;SDS011;13772;52.996;9.124;2022-12-18T13:12:24;11.90;;;6.77;;
25980;SDS011;13772;52.996;9.124;2022-12-18T13:15:21;12.50;;;7.37;;
25980;SDS011;13772;52.996;9.124;2022-12-18T13:17:47;15.25;;;7.38;;
25980;SDS011;13772;52.996;9.124;2022-12-18T13:20:13;16.57;;;8.07;;
25980;SDS011;13772;52.996;9.124;2022-12-18T13:40:53;12.97;;;7.17;;
25980;SDS011;13772;52.996;9.124;2022-12-18T13:45:45;14.10;;;7.20;;
25980;SDS011;13772;52.996;9.124;2022-12-18T13:48:22;15.93;;;7.37;;
25980;SDS011;13772;52.996;9.124;2022-12-18T13:50:49;13.53;;;8.40;;
25980;SDS011;13772;52.996;9.124;2022-12-18T13:53:21;11.93;;;7.03;;
25980;SDS011;13772;52.996;9.124;2022-12-18T13:55:48;10.13;;;6.93;;
25980;SDS011;13772;52.996;9.124;2022-12-18T13:58:14;13.93;;;7.37;;
25980;SDS011;13772;52.996;9.124;2022-12-18T14:00:42;12.30;;;7.07;;
25980;SDS011;13772;52.996;9.124;2022-12-18T14:03:16;14.32;;;8.25;;
25980;SDS011;13772;52.996;9.124;2022-12-18T14:05:43;15.03;;;7.77;;
25980;SDS011;13772;52.996;9.124;2022-12-18T14:08:10;15.43;;;7.73;;
25980;SDS011;13772;52.996;9.124;2022-12-18T14:10:39;16.60;;;7.70;;
25980;SDS011;13772;52.996;9.124;2022-12-18T14:13:06;14.45;;;8.30;;
25980;SDS011;13772;52.996;9.124;2022-12-18T14:15:38;15.03;;;8.30;;
25980;SDS011;13772;52.996;9.124;2022-12-18T14:20:49;15.90;;;6.87;;
25980;SDS011;13772;52.996;9.124;2022-12-18T14:23:26;16.53;;;7.57;;
25980;SDS011;13772;52.996;9.124;2022-12-18T14:25:51;14.00;;;6.70;;
25980;SDS011;13772;52.996;9.124;2022-12-18T14:28:17;12.80;;;6.50;;
25980;SDS011;13772;52.996;9.124;2022-12-18T14:30:43;13.90;;;6.33;;
25980;SDS011;13772;52.996;9.124;2022-12-18T14:33:17;15.80;;;7.53;;
25980;SDS011;13772;52.996;9.124;2022-12-18T14:38:39;13.70;;;7.30;;
25980;SDS011;13772;52.996;9.124;2022-12-18T14:41:05;14.87;;;6.03;;
25980;SDS011;13772;52.996;9.124;2022-12-18T14:43:32;11.70;;;7.03;;
25980;SDS011;13772;52.996;9.124;2022-12-18T14:45:58;16.33;;;7.10;;
25980;SDS011;13772;52.996;9.124;2022-12-18T14:48:42;14.53;;;7.33;;
25980;SDS011;13772;52.996;9.124;2022-12-18T14:56:01;14.57;;;6.53;;
25980;SDS011;13772;52.996;9.124;2022-12-18T14:58:26;11.40;;;6.70;;
25980;SDS011;13772;52.996;9.124;2022-12-18T15:00:51;12.00;;;6.73;;
25980;SDS011;13772;52.996;9.124;2022-12-18T15:03:20;17.83;;;8.97;;
25980;SDS011;13772;52.996;9.124;2022-12-18T15:05:46;13.52;;;6.93;;
25980;SDS011;13772;52.996;9.124;2022-12-18T15:08:32;13.67;;;7.77;;
25980;SDS011;13772;52.996;9.124;2022-12-18T15:10:59;13.60;;;7.23;;
25980;SDS011;13772;52.996;9.124;2022-12-18T15:13:24;13.67;;;7.10;;
25980;SDS011;13772;52.996;9.124;2022-12-18T15:15:50;12.83;;;7.10;;
25980;SDS011;13772;52.996;9.124;2022-12-18T15:18:16;15.47;;;7.47;;
25980;SDS011;13772;52.996;9.124;2022-12-18T15:25:58;12.77;;;7.20;;
25980;SDS011;13772;52.996;9.124;2022-12-18T15:28:37;15.80;;;7.23;;
25980;SDS011;13772;52.996;9.124;2022-12-18T15:31:04;12.32;;;6.88;;
25980;SDS011;13772;52.996;9.124;2022-12-18T15:33:34;11.57;;;5.97;;
25980;SDS011;13772;52.996;9.124;2022-12-18T15:38:25;11.27;;;6.53;;
25980;SDS011;13772;52.996;9.124;2022-12-18T15:40:51;14.00;;;6.10;;
25980;SDS011;13772;52.996;9.124;2022-12-18T15:43:22;10.97;;;6.40;;
25980;SDS011;13772;52.996;9.124;2022-12-18T15:46:04;10.97;;;5.57;;
25980;SDS011;13772;52.996;9.124;2022-12-18T15:48:29;10.47;;;6.27;;
25980;SDS011;13772;52.996;9.124;2022-12-18T15:50:55;13.43;;;6.57;;
25980;SDS011;13772;52.996;9.124;2022-12-18T15:53:22;11.63;;;6.97;;
25980;SDS011;13772;52.996;9.124;2022-12-18T15:55:48;12.97;;;5.87;;
25980;SDS011;13772;52.996;9.124;2022-12-18T15:58:32;13.30;;;5.90;;
25980;SDS011;13772;52.996;9.124;2022-12-18T16:00:58;13.30;;;6.50;;
25980;SDS011;13772;52.996;9.124;2022-12-18T16:03:23;12.20;;;6.83;;
25980;SDS011;13772;52.996;9.124;2022-12-18T16:05:49;12.67;;;7.40;;
25980;SDS011;13772;52.996;9.124;2022-12-18T16:08:14;12.57;;;6.20;;
25980;SDS011;13772;52.996;9.124;2022-12-18T16:10:39;11.13;;;6.63;;
25980;SDS011;13772;52.996;9.124;2022-12-18T16:13:05;12.67;;;7.77;;
25980;SDS011;13772;52.996;9.124;2022-12-18T16:15:30;19.00;;;8.57;;
25980;SDS011;13772;52.996;9.124;2022-12-18T16:17:56;12.87;;;7.50;;
25980;SDS011;13772;52.996;9.124;2022-12-18T16:20:21;13.90;;;7.03;;
25980;SDS011;13772;52.996;9.124;2022-12-18T16:22:47;15.10;;;7.60;;
25980;SDS011;13772;52.996;9.124;2022-12-18T16:25:19;14.87;;;8.23;;
25980;SDS011;13772;52.996;9.124;2022-12-18T16:27:47;13.60;;;7.97;;
25980;SDS011;13772;52.996;9.124;2022-12-18T16:30:13;15.27;;;8.20;;
25980;SDS011;13772;52.996;9.124;2022-12-18T16:32:38;15.47;;;7.83;;
25980;SDS011;13772;52.996;9.124;2022-12-18T16:35:04;15.47;;;8.17;;
25980;SDS011;13772;52.996;9.124;2022-12-18T16:37:29;14.10;;;7.80;;
25980;SDS011;13772;52.996;9.124;2022-12-18T16:39:54;14.90;;;7.93;;
25980;SDS011;13772;52.996;9.124;2022-12-18T16:42:20;13.87;;;9.20;;
25980;SDS011;13772;52.996;9.124;2022-12-18T16:44:45;15.47;;;8.43;;
25980;SDS011;13772;52.996;9.124;2022-12-18T16:47:11;15.50;;;8.60;;
25980;SDS011;13772;52.996;9.124;2022-12-18T16:49:36;16.00;;;8.37;;
25980;SDS011;13772;52.996;9.124;2022-12-18T16:52:02;12.27;;;7.53;;
25980;SDS011;13772;52.996;9.124;2022-12-18T16:54:27;12.90;;;7.90;;
25980;SDS011;13772;52.996;9.124;2022-12-18T16:56:54;14.77;;;7.70;;
25980;SDS011;13772;52.996;9.124;2022-12-18T16:59:19;16.57;;;9.07;;
25980;SDS011;13772;52.996;9.124;2022-12-18T17:01:45;16.27;;;8.57;;
25980;SDS011;13772;52.996;9.124;2022-12-18T17:04:10;15.07;;;7.77;;
25980;SDS011;13772;52.996;9.124;2022-12-18T17:06:38;14.33;;;8.47;;
25980;SDS011;13772;52.996;9.124;2022-12-18T17:09:05;17.67;;;8.73;;
25980;SDS011;13772;52.996;9.124;2022-12-18T17:11:31;14.00;;;8.83;;
25980;SDS011;13772;52.996;9.124;2022-12-18T17:13:57;14.67;;;7.93;;
25980;SDS011;13772;52.996;9.124;2022-12-18T17:16:23;16.90;;;8.50;;
25980;SDS011;13772;52.996;9.124;2022-12-18T17:18:48;16.00;;;8.37;;
25980;SDS011;13772;52.996;9.124;2022-12-18T17:21:14;16.53;;;8.73;;
25980;SDS011;13772;52.996;9.124;2022-12-18T17:23:39;16.63;;;9.00;;
25980;SDS011;13772;52.996;9.124;2022-12-18T17:26:06;15.30;;;8.97;;
25980;SDS011;13772;52.996;9.124;2022-12-18T17:28:32;18.77;;;9.03;;
25980;SDS011;13772;52.996;9.124;2022-12-18T17:30:58;15.53;;;8.90;;
25980;SDS011;13772;52.996;9.124;2022-12-18T17:33:23;17.23;;;9.23;;
25980;SDS011;13772;52.996;9.124;2022-12-18T17:35:48;15.87;;;8.33;;
25980;SDS011;13772;52.996;9.124;2022-12-18T17:38:14;14.67;;;8.27;;
25980;SDS011;13772;52.996;9.124;2022-12-18T17:40:39;16.67;;;8.73;;
25980;SDS011;13772;52.996;9.124;2022-12-18T17:43:05;14.70;;;8.57;;
25980;SDS011;13772;52.996;9.124;2022-12-18T17:45:31;16.57;;;9.47;;
25980;SDS011;13772;52.996;9.124;2022-12-18T17:47:58;17.07;;;8.40;;
25980;SDS011;13772;52.996;9.124;2022-12-18T17:50:24;17.77;;;9.43;;
25980;SDS011;13772;52.996;9.124;2022-12-18T17:52:49;16.37;;;9.33;;
25980;SDS011;13772;52.996;9.124;2022-12-18T17:57:44;15.90;;;8.67;;
25980;SDS011;13772;52.996;9.124;2022-12-18T18:00:09;16.63;;;8.83;;
25980;SDS011;13772;52.996;9.124;2022-12-18T18:02:35;16.90;;;9.27;;
25980;SDS011;13772;52.996;9.124;2022-12-18T18:05:00;16.77;;;9.13;;
25980;SDS011;13772;52.996;9.124;2022-12-18T18:07:25;16.43;;;9.33;;
25980;SDS011;13772;52.996;9.124;2022-12-18T18:09:51;17.07;;;9.27;;
25980;SDS011;13772;52.996;9.124;2022-12-18T18:12:16;15.27;;;8.77;;
25980;SDS011;13772;52.996;9.124;2022-12-18T18:15:01;16.00;;;8.83;;
25980;SDS011;13772;52.996;9.124;2022-12-18T18:17:26;14.30;;;8.33;;
25980;SDS011;13772;52.996;9.124;2022-12-18T18:19:51;14.47;;;8.70;;
25980;SDS011;13772;52.996;9.124;2022-12-18T18:22:16;16.47;;;9.07;;
25980;SDS011;13772;52.996;9.124;2022-12-18T18:24:43;18.67;;;8.60;;
25980;SDS011;13772;52.996;9.124;2022-12-18T18:27:08;18.30;;;8.87;;
25980;SDS011;13772;52.996;9.124;2022-12-18T18:29:34;17.07;;;8.77;;
25980;SDS011;13772;52.996;9.124;2022-12-18T18:31:59;15.77;;;8.43;;
25980;SDS011;13772;52.996;9.124;2022-12-18T18:34:25;13.67;;;8.10;;
25980;SDS011;13772;52.996;9.124;2022-12-18T18:36:51;16.77;;;7.80;;
25980;SDS011;13772;52.996;9.124;2022-12-18T18:39:16;15.27;;;8.53;;
25980;SDS011;13772;52.996;9.124;2022-12-18T18:41:42;15.40;;;7.77;;
25980;SDS011;13772;52.996;9.124;2022-12-18T18:44:08;15.70;;;8.10;;
25980;SDS011;13772;52.996;9.124;2022-12-18T18:46:33;14.57;;;7.73;;
25980;SDS011;13772;52.996;9.124;2022-12-18T18:48:58;13.47;;;7.43;;
25980;SDS011;13772;52.996;9.124;2022-12-18T18:51:24;14.63;;;7.33;;
25980;SDS011;13772;52.996;9.124;2022-12-18T18:53:49;16.87;;;8.73;;
25980;SDS011;13772;52.996;9.124;2022-12-18T18:56:16;15.33;;;8.00;;
25980;SDS011;13772;52.996;9.124;2022-12-18T18:58:42;19.67;;;8.13;;
25980;SDS011;13772;52.996;9.124;2022-12-18T19:01:09;15.17;;;7.53;;
25980;SDS011;13772;52.996;9.124;2022-12-18T19:03:35;14.57;;;8.27;;
25980;SDS011;13772;52.996;9.124;2022-12-18T19:06:01;15.97;;;8.53;;
25980;SDS011;13772;52.996;9.124;2022-12-18T19:08:28;13.80;;;7.40;;
25980;SDS011;13772;52.996;9.124;2022-12-18T19:10:54;14.23;;;7.93;;
25980;SDS011;13772;52.996;9.124;2022-12-18T19:13:20;13.47;;;7.93;;
25980;SDS011;13772;52.996;9.124;2022-12-18T19:15:47;11.73;;;6.80;;
25980;SDS011;13772;52.996;9.124;2022-12-18T19:18:12;13.93;;;7.13;;
25980;SDS011;13772;52.996;9.124;2022-12-18T19:20:37;14.93;;;7.47;;
25980;SDS011;13772;52.996;9.124;2022-12-18T19:23:02;11.47;;;6.57;;
25980;SDS011;13772;52.996;9.124;2022-12-18T19:25:28;13.57;;;7.13;;
25980;SDS011;13772;52.996;9.124;2022-12-18T19:27:56;10.80;;;6.75;;
25980;SDS011;13772;52.996;9.124;2022-12-18T19:30:22;13.40;;;7.50;;
25980;SDS011;13772;52.996;9.124;2022-12-18T19:32:47;11.00;;;6.07;;
25980;SDS011;13772;52.996;9.124;2022-12-18T19:35:13;13.77;;;7.30;;
25980;SDS011;13772;52.996;9.124;2022-12-18T19:37:38;12.37;;;7.20;;
25980;SDS011;13772;52.996;9.124;2022-12-18T19:40:03;11.97;;;6.97;;
25980;SDS011;13772;52.996;9.124;2022-12-18T19:42:29;12.60;;;6.77;;
25980;SDS011;13772;52.996;9.124;2022-12-18T19:44:54;12.73;;;7.07;;
25980;SDS011;13772;52.996;9.124;2022-12-18T19:47:19;10.87;;;6.77;;
25980;SDS011;13772;52.996;9.124;2022-12-18T19:49:44;13.13;;;7.13;;
25980;SDS011;13772;52.996;9.124;2022-12-18T19:52:10;11.77;;;6.93;;
25980;SDS011;13772;52.996;9.124;2022-12-18T19:54:35;12.10;;;6.60;;
25980;SDS011;13772;52.996;9.124;2022-12-18T19:57:00;11.97;;;7.20;;
25980;SDS011;13772;52.996;9.124;2022-12-18T19:59:26;12.87;;;7.03;;
25980;SDS011;13772;52.996;9.124;2022-12-18T20:01:51;12.30;;;6.73;;
25980;SDS011;13772;52.996;9.124;2022-12-18T20:04:18;11.60;;;6.97;;
25980;SDS011;13772;52.996;9.124;2022-12-18T20:06:47;16.40;;;6.77;;
25980;SDS011;13772;52.996;9.124;2022-12-18T20:09:13;13.03;;;6.90;;
25980;SDS011;13772;52.996;9.124;2022-12-18T20:11:38;15.07;;;7.90;;
25980;SDS011;13772;52.996;9.124;2022-12-18T20:14:03;14.03;;;7.80;;
25980;SDS011;13772;52.996;9.124;2022-12-18T20:16:30;12.70;;;7.53;;
25980;SDS011;13772;52.996;9.124;2022-12-18T20:18:56;12.17;;;6.80;;
25980;SDS011;13772;52.996;9.124;2022-12-18T20:21:21;13.87;;;7.93;;
25980;SDS011;13772;52.996;9.124;2022-12-18T20:23:46;12.33;;;7.60;;
25980;SDS011;13772;52.996;9.124;2022-12-18T20:26:11;15.73;;;8.33;;
25980;SDS011;13772;52.996;9.124;2022-12-18T20:28:37;13.17;;;7.23;;
25980;SDS011;13772;52.996;9.124;2022-12-18T20:31:03;14.67;;;8.30;;
25980;SDS011;13772;52.996;9.124;2022-12-18T20:33:29;13.70;;;7.37;;
25980;SDS011;13772;52.996;9.124;2022-12-18T20:35:59;13.27;;;7.30;;
25980;SDS011;13772;52.996;9.124;2022-12-18T20:38:24;14.93;;;7.37;;
25980;SDS011;13772;52.996;9.124;2022-12-18T20:40:49;12.20;;;7.20;;
25980;SDS011;13772;52.996;9.124;2022-12-18T20:43:15;13.37;;;7.67;;
25980;SDS011;13772;52.996;9.124;2022-12-18T20:45:40;16.67;;;7.67;;
25980;SDS011;13772;52.996;9.124;2022-12-18T20:48:06;11.60;;;7.40;;
25980;SDS011;13772;52.996;9.124;2022-12-18T20:50:31;12.27;;;7.67;;
25980;SDS011;13772;52.996;9.124;2022-12-18T20:52:56;12.40;;;7.73;;
25980;SDS011;13772;52.996;9.124;2022-12-18T20:55:21;14.77;;;8.53;;
25980;SDS011;13772;52.996;9.124;2022-12-18T20:57:47;13.10;;;7.80;;
25980;SDS011;13772;52.996;9.124;2022-12-18T21:00:13;15.57;;;8.03;;
25980;SDS011;13772;52.996;9.124;2022-12-18T21:02:39;17.03;;;8.43;;
25980;SDS011;13772;52.996;9.124;2022-12-18T21:05:04;12.77;;;8.43;;
25980;SDS011;13772;52.996;9.124;2022-12-18T21:07:29;14.87;;;7.83;;
25980;SDS011;13772;52.996;9.124;2022-12-18T21:09:55;12.23;;;8.00;;
25980;SDS011;13772;52.996;9.124;2022-12-18T21:12:20;14.20;;;7.67;;
25980;SDS011;13772;52.996;9.124;2022-12-18T21:15:07;14.43;;;7.57;;
25980;SDS011;13772;52.996;9.124;2022-12-18T21:17:33;12.27;;;8.20;;
25980;SDS011;13772;52.996;9.124;2022-12-18T21:19:58;14.73;;;8.17;;
25980;SDS011;13772;52.996;9.124;2022-12-18T21:22:24;14.50;;;7.70;;
25980;SDS011;13772;52.996;9.124;2022-12-18T21:24:49;13.73;;;7.70;;
25980;SDS011;13772;52.996;9.124;2022-12-18T21:27:15;13.07;;;7.83;;
25980;SDS011;13772;52.996;9.124;2022-12-18T21:29:40;15.57;;;8.03;;
25980;SDS011;13772;52.996;9.124;2022-12-18T21:32:05;15.10;;;8.73;;
25980;SDS011;13772;52.996;9.124;2022-12-18T21:34:33;13.97;;;7.87;;
25980;SDS011;13772;52.996;9.124;2022-12-18T21:36:58;13.20;;;8.73;;
25980;SDS011;13772;52.996;9.124;2022-12-18T21:39:24;13.97;;;8.43;;
25980;SDS011;13772;52.996;9.124;2022-12-18T21:41:50;13.83;;;8.00;;
25980;SDS011;13772;52.996;9.124;2022-12-18T21:44:34;12.00;;;7.80;;
25980;SDS011;13772;52.996;9.124;2022-12-18T21:46:59;14.33;;;8.30;;
25980;SDS011;13772;52.996;9.124;2022-12-18T21:49:24;14.73;;;8.67;;
25980;SDS011;13772;52.996;9.124;2022-12-18T21:51:51;13.50;;;7.90;;
25980;SDS011;13772;52.996;9.124;2022-12-18T21:54:17;13.97;;;8.43;;
25980;SDS011;13772;52.996;9.124;2022-12-18T21:59:23;16.23;;;8.00;;
25980;SDS011;13772;52.996;9.124;2022-12-18T22:01:49;14.02;;;8.05;;
25980;SDS011;13772;52.996;9.124;2022-12-18T22:04:14;14.20;;;7.87;;
25980;SDS011;13772;52.996;9.124;2022-12-18T22:06:40;13.67;;;8.20;;
25980;SDS011;13772;52.996;9.124;2022-12-18T22:09:07;13.57;;;8.30;;
25980;SDS011;13772;52.996;9.124;2022-12-18T22:11:32;13.90;;;7.60;;
25980;SDS011;13772;52.996;9.124;2022-12-18T22:13:57;12.67;;;8.60;;
25980;SDS011;13772;52.996;9.124;2022-12-18T22:16:23;15.73;;;8.07;;
25980;SDS011;13772;52.996;9.124;2022-12-18T22:18:48;12.80;;;7.97;;
25980;SDS011;13772;52.996;9.124;2022-12-18T22:21:20;15.97;;;8.07;;
25980;SDS011;13772;52.996;9.124;2022-12-18T22:23:50;12.20;;;7.53;;
25980;SDS011;13772;52.996;9.124;2022-12-18T22:26:17;12.90;;;8.20;;
25980;SDS011;13772;52.996;9.124;2022-12-18T22:28:42;15.03;;;8.47;;
25980;SDS011;13772;52.996;9.124;2022-12-18T22:31:26;15.00;;;8.53;;
25980;SDS011;13772;52.996;9.124;2022-12-18T22:33:51;13.47;;;8.70;;
25980;SDS011;13772;52.996;9.124;2022-12-18T22:36:16;14.47;;;8.13;;
25980;SDS011;13772;52.996;9.124;2022-12-18T22:38:41;15.20;;;7.63;;
25980;SDS011;13772;52.996;9.124;2022-12-18T22:41:07;15.20;;;7.77;;
25980;SDS011;13772;52.996;9.124;2022-12-18T22:43:32;12.83;;;7.47;;
25980;SDS011;13772;52.996;9.124;2022-12-18T22:45:57;14.93;;;7.20;;
